Time;durP1;ratioP1;P1;durP2;ratioP2;P2;SDS_P1;SDS_P2;PMS_P1;PMS_P2;Temp;Humidity;BMP_temperature;BMP_pressure;BME280_temperature;BME280_humidity;BME280_pressure;Samples;Min_cycle;Max_cycle;Signal;HPM_P1;HPM_P2
2024/01/06 00:01:31;;;;;;;9.15;4.65;;;;;;;5.40;100.00;100508.59;6082712;19;20018;-73
2024/01/06 00:03:36;;;;;;;15.93;5.07;;;;;;;5.45;100.00;100506.72;6084474;19;20014;-73
2024/01/06 00:05:41;;;;;;;10.15;6.07;;;;;;;5.54;100.00;100516.91;6085739;19;20025;-73
2024/01/06 00:07:46;;;;;;;17.63;6.72;;;;;;;5.50;100.00;100525.69;6087382;19;20419;-72
2024/01/06 00:09:52;;;;;;;13.07;6.55;;;;;;;5.53;100.00;100520.44;6084346;19;20478;-72
2024/01/06 00:11:57;;;;;;;13.68;5.80;;;;;;;5.48;100.00;100515.31;6084719;19;20022;-73
2024/01/06 00:14:02;;;;;;;11.13;5.10;;;;;;;5.45;100.00;100517.13;6077034;19;20006;-73
2024/01/06 00:16:08;;;;;;;14.77;5.97;;;;;;;5.45;100.00;100522.34;6073446;19;20030;-72
2024/01/06 00:18:18;;;;;;;18.02;6.82;;;;;;;5.39;100.00;100518.13;6082001;19;20323;-72
2024/01/06 00:20:24;;;;;;;11.23;6.38;;;;;;;5.30;100.00;100525.34;6084893;19;20010;-70
2024/01/06 00:22:29;;;;;;;13.80;6.25;;;;;;;5.27;100.00;100532.34;6085355;19;20007;-71
2024/01/06 00:24:34;;;;;;;13.55;7.07;;;;;;;5.33;100.00;100536.53;6085964;19;20022;-71
2024/01/06 00:26:39;;;;;;;15.43;7.10;;;;;;;5.29;100.00;100532.28;6087675;19;20038;-71
2024/01/06 00:28:44;;;;;;;12.50;6.43;;;;;;;5.30;100.00;100527.94;6089971;19;20006;-71
2024/01/06 00:30:49;;;;;;;15.75;7.35;;;;;;;5.26;100.00;100534.97;6090993;19;20050;-71
2024/01/06 00:32:55;;;;;;;13.23;6.95;;;;;;;5.19;100.00;100534.28;6090444;19;20002;-70
2024/01/06 00:35:02;;;;;;;13.25;6.18;;;;;;;5.16;100.00;100529.13;6092452;19;20010;-70
2024/01/06 00:37:08;;;;;;;15.65;6.22;;;;;;;5.13;100.00;100530.94;6090748;19;20021;-71
2024/01/06 00:39:13;;;;;;;17.83;6.47;;;;;;;5.22;100.00;100534.19;6088019;19;20047;-73
2024/01/06 00:41:15;;;;;;;11.55;6.55;;;;;;;5.21;100.00;100540.31;6084984;19;20436;-73
2024/01/06 00:43:21;;;;;;;13.02;5.95;;;;;;;5.23;100.00;100541.09;6089851;19;20042;-73
2024/01/06 00:45:27;;;;;;;14.27;7.00;;;;;;;5.13;100.00;100546.56;6088605;19;20032;-74
2024/01/06 00:47:34;;;;;;;13.02;5.90;;;;;;;5.06;100.00;100551.91;6091597;19;20027;-72
2024/01/06 00:49:36;;;;;;;15.50;6.53;;;;;;;4.99;100.00;100555.53;6091560;19;20006;-72
2024/01/06 00:51:44;;;;;;;11.30;5.75;;;;;;;5.02;100.00;100544.19;6090995;19;20126;-72
2024/01/06 00:53:50;;;;;;;15.63;6.97;;;;;;;4.94;100.00;100553.94;6087871;19;20476;-72
2024/01/06 00:55:52;;;;;;;12.40;5.75;;;;;;;5.01;100.00;100553.75;6089844;19;20023;-72
2024/01/06 00:57:57;;;;;;;10.23;5.45;;;;;;;5.03;100.00;100551.13;6090966;19;20020;-72
2024/01/06 01:00:02;;;;;;;12.40;6.38;;;;;;;5.04;100.00;100558.91;6088236;19;20030;-73
2024/01/06 01:02:07;;;;;;;10.52;4.55;;;;;;;5.01;100.00;100552.91;6089623;19;20618;-73
2024/01/06 01:04:13;;;;;;;14.50;5.95;;;;;;;5.03;100.00;100566.75;6089382;19;20014;-73
2024/01/06 01:06:18;;;;;;;17.20;5.70;;;;;;;5.14;100.00;100564.78;6089806;19;20490;-73
2024/01/06 01:08:25;;;;;;;14.88;6.25;;;;;;;5.11;100.00;100569.16;6089705;19;20027;-73
2024/01/06 01:10:31;;;;;;;13.85;6.63;;;;;;;5.03;100.00;100569.38;6087516;19;20022;-73
2024/01/06 01:12:36;;;;;;;12.55;5.50;;;;;;;4.97;100.00;100572.09;6089796;19;20014;-72
2024/01/06 01:14:41;;;;;;;10.00;5.68;;;;;;;5.03;100.00;100574.56;6090478;19;20019;-72
2024/01/06 01:16:46;;;;;;;13.27;6.22;;;;;;;4.97;100.00;100575.53;6088425;19;20018;-73
2024/01/06 01:18:51;;;;;;;16.55;7.28;;;;;;;4.99;100.00;100578.13;6091337;19;20111;-73
2024/01/06 01:20:56;;;;;;;12.52;5.53;;;;;;;5.02;100.00;100581.50;6090641;19;20010;-71
2024/01/06 01:22:59;;;;;;;14.00;5.70;;;;;;;5.02;100.00;100593.69;6091109;19;20019;-71
2024/01/06 01:25:08;;;;;;;12.80;6.30;;;;;;;5.04;100.00;100594.50;6088799;19;20010;-71
2024/01/06 01:27:13;;;;;;;23.95;5.25;;;;;;;5.01;100.00;100591.97;6092155;19;20439;-72
2024/01/06 01:29:20;;;;;;;13.85;5.95;;;;;;;5.02;100.00;100598.88;6088809;19;20020;-72
2024/01/06 01:31:25;;;;;;;14.77;6.65;;;;;;;4.95;100.00;100611.19;6089705;19;20090;-72
2024/01/06 01:33:30;;;;;;;11.13;5.90;;;;;;;4.94;100.00;100609.47;6091546;19;20046;-73
2024/01/06 01:35:32;;;;;;;13.32;5.65;;;;;;;4.95;100.00;100624.22;6085028;19;20586;-72
2024/01/06 01:37:38;;;;;;;9.48;4.75;;;;;;;4.89;100.00;100620.88;6088904;19;20356;-72
2024/01/06 01:39:43;;;;;;;10.88;5.70;;;;;;;4.92;100.00;100620.78;6089534;19;20471;-73
2024/01/06 01:41:51;;;;;;;13.00;5.50;;;;;;;4.91;100.00;100619.94;6086984;19;20728;-73
2024/01/06 01:43:58;;;;;;;10.20;4.30;;;;;;;4.83;100.00;100625.31;6089962;19;20038;-73
2024/01/06 01:46:01;;;;;;;9.30;4.80;;;;;;;4.88;100.00;100624.38;6090080;19;20025;-72
2024/01/06 01:48:06;;;;;;;10.30;4.57;;;;;;;4.86;100.00;100629.59;6091227;19;20487;-72
2024/01/06 01:50:14;;;;;;;9.68;4.45;;;;;;;4.86;100.00;100632.19;6088946;19;20050;-72
2024/01/06 01:52:19;;;;;;;11.50;4.93;;;;;;;4.88;100.00;100630.44;6083678;19;20006;-73
2024/01/06 01:54:24;;;;;;;10.82;4.32;;;;;;;4.75;100.00;100629.81;6087493;19;20015;-71
2024/01/06 01:56:33;;;;;;;17.20;4.13;;;;;;;4.74;100.00;100650.66;6090541;19;20022;-72
2024/01/06 01:58:41;;;;;;;11.60;4.43;;;;;;;4.71;100.00;100642.91;6091023;19;20077;-73
2024/01/06 02:00:47;;;;;;;12.15;3.95;;;;;;;4.76;100.00;100641.06;6088249;19;20006;-72
2024/01/06 02:02:50;;;;;;;5.93;3.05;;;;;;;4.76;100.00;100644.53;6089938;19;20014;-71
2024/01/06 02:04:54;;;;;;;;;;;;;;;4.76;100.00;100641.06;6087079;19;20494;-71
2024/01/06 02:06:59;;;;;;;4.20;2.60;;;;;;;4.59;100.00;100646.63;6084867;19;19911;-72
2024/01/06 02:09:05;;;;;;;7.85;2.97;;;;;;;4.55;100.00;100642.34;6090355;19;20007;-71
2024/01/06 02:11:10;;;;;;;8.25;3.22;;;;;;;4.64;100.00;100655.22;6085813;19;20087;-73
2024/01/06 02:13:16;;;;;;;9.55;3.45;;;;;;;4.61;100.00;100648.31;6087445;19;20082;-71
2024/01/06 02:15:26;;;;;;;3.65;2.30;;;;;;;4.66;100.00;100656.03;6086684;19;20542;-73
2024/01/06 02:17:31;;;;;;;4.03;2.47;;;;;;;4.36;100.00;100663.50;6089876;19;20019;-72
2024/01/06 02:19:36;;;;;;;7.35;2.67;;;;;;;4.31;100.00;100660.13;6087910;19;20006;-72
2024/01/06 02:21:45;;;;;;;5.03;3.08;;;;;;;4.33;100.00;100660.97;6089308;19;20038;-72
2024/01/06 02:23:53;;;;;;;3.53;2.60;;;;;;;4.28;100.00;100669.72;6087145;19;20006;-72
2024/01/06 02:25:59;;;;;;;4.00;2.45;;;;;;;4.18;100.00;100680.28;6087484;19;20410;-72
2024/01/06 02:28:01;;;;;;;3.45;2.80;;;;;;;4.25;100.00;100673.25;6082773;19;20023;-72
2024/01/06 02:30:07;;;;;;;4.95;2.95;;;;;;;4.21;100.00;100668.13;6087476;19;20027;-72
2024/01/06 02:32:13;;;;;;;7.95;3.35;;;;;;;4.22;100.00;100681.09;6088901;19;20010;-72
2024/01/06 02:34:18;;;;;;;6.68;3.35;;;;;;;4.28;100.00;100680.13;6089387;19;20015;-70
2024/01/06 02:36:23;;;;;;;8.35;3.83;;;;;;;4.20;100.00;100684.63;6085656;19;20006;-70
2024/01/06 02:38:25;;;;;;;4.30;2.83;;;;;;;4.26;100.00;100690.56;6082970;19;20027;-71
2024/01/06 02:40:33;;;;;;;9.93;3.80;;;;;;;4.25;100.00;100690.59;6086526;19;20527;-71
2024/01/06 02:42:39;;;;;;;10.82;4.15;;;;;;;4.23;100.00;100698.41;6088058;19;20579;-71
2024/01/06 02:44:44;;;;;;;8.10;4.53;;;;;;;4.31;100.00;100701.75;6086035;19;20027;-72
2024/01/06 02:46:49;;;;;;;9.48;5.25;;;;;;;4.40;100.00;100698.16;6089389;19;20023;-71
2024/01/06 02:48:54;;;;;;;7.25;4.10;;;;;;;4.38;100.00;100705.13;6084293;19;20397;-71
2024/01/06 02:50:59;;;;;;;8.75;4.53;;;;;;;4.38;100.00;100697.31;6090072;19;20014;-71
2024/01/06 02:53:05;;;;;;;8.05;3.67;;;;;;;4.42;100.00;100705.91;6084833;19;20018;-71
2024/01/06 02:55:10;;;;;;;6.93;3.95;;;;;;;4.51;100.00;100713.56;6082892;19;20452;-71
2024/01/06 02:57:17;;;;;;;10.32;4.95;;;;;;;4.43;100.00;100711.09;6085315;19;20022;-71
2024/01/06 02:59:20;;;;;;;12.20;4.63;;;;;;;4.44;100.00;100710.19;6081965;19;20007;-71
2024/01/06 03:01:25;;;;;;;8.35;4.35;;;;;;;4.47;100.00;100717.09;6086504;19;20086;-70
2024/01/06 03:03:30;;;;;;;5.60;3.67;;;;;;;4.51;100.00;100718.78;6084607;19;20015;-71
2024/01/06 03:05:36;;;;;;;8.65;4.70;;;;;;;4.46;100.00;100718.00;6084982;19;20518;-71
2024/01/06 03:07:39;;;;;;;10.23;4.88;;;;;;;4.46;100.00;100720.59;6086616;19;20015;-71
2024/01/06 03:09:44;;;;;;;14.25;4.03;;;;;;;4.40;100.00;100722.41;6087022;19;20021;-71
2024/01/06 03:11:49;;;;;;;22.42;5.78;;;;;;;4.34;100.00;100721.66;6083223;19;20015;-71
2024/01/06 03:13:57;;;;;;;9.13;4.65;;;;;;;4.39;100.00;100725.88;6085495;19;20006;-71
2024/01/06 03:16:06;;;;;;;10.40;4.68;;;;;;;4.39;100.00;100731.09;6082775;19;20025;-71
2024/01/06 03:18:11;;;;;;;9.15;4.13;;;;;;;4.30;100.00;100726.06;6077917;19;20471;-71
2024/01/06 03:20:16;;;;;;;9.88;5.85;;;;;;;4.30;100.00;100731.25;6085463;19;20015;-71
2024/01/06 03:22:21;;;;;;;9.25;5.18;;;;;;;4.37;100.00;100727.69;6085381;19;20010;-72
2024/01/06 03:24:28;;;;;;;9.57;5.13;;;;;;;4.36;100.00;100735.50;6087179;19;20011;-72
2024/01/06 03:26:33;;;;;;;11.15;5.70;;;;;;;4.33;100.00;100736.41;6083712;19;20010;-71
2024/01/06 03:28:38;;;;;;;8.93;4.65;;;;;;;4.33;100.00;100738.16;6084510;19;20018;-70
2024/01/06 03:30:46;;;;;;;13.05;5.50;;;;;;;4.32;100.00;100737.28;6081467;19;20518;-71
2024/01/06 03:32:51;;;;;;;8.07;3.88;;;;;;;4.33;100.00;100736.41;6082267;19;20006;-70
2024/01/06 03:34:56;;;;;;;8.38;4.30;;;;;;;4.28;100.00;100738.22;6085823;19;20043;-72
2024/01/06 03:37:02;;;;;;;12.77;5.07;;;;;;;4.30;100.00;100741.66;6083745;19;20034;-72
2024/01/06 03:39:05;;;;;;;7.57;5.00;;;;;;;4.29;100.00;100742.56;6083519;19;20011;-71
2024/01/06 03:41:10;;;;;;;9.65;4.10;;;;;;;4.36;100.00;100745.91;6084563;19;20530;-71
2024/01/06 03:43:16;;;;;;;13.25;4.72;;;;;;;4.29;100.00;100752.97;6084421;19;20082;-71
2024/01/06 03:45:18;;;;;;;9.57;4.85;;;;;;;4.34;100.00;100745.06;6083605;19;20015;-71
2024/01/06 03:47:26;;;;;;;10.07;4.43;;;;;;;4.21;100.00;100757.41;6084822;19;20422;-71
2024/01/06 03:49:28;;;;;;;9.90;4.35;;;;;;;4.18;100.00;100763.50;6079182;19;20014;-71
2024/01/06 03:51:33;;;;;;;12.88;4.38;;;;;;;4.21;100.00;100775.59;6083076;19;20006;-71
2024/01/06 03:53:40;;;;;;;7.53;4.00;;;;;;;4.21;100.00;100766.94;6078419;19;21181;-71
2024/01/06 03:55:42;;;;;;;7.80;3.65;;;;;;;4.32;100.00;100770.25;6085003;19;20405;-72
2024/01/06 03:57:47;;;;;;;8.63;4.05;;;;;;;4.31;100.00;100774.56;6083441;19;20006;-72
2024/01/06 03:59:52;;;;;;;6.68;4.50;;;;;;;4.34;100.00;100773.66;6080369;19;20003;-72
2024/01/06 04:01:57;;;;;;;9.32;4.57;;;;;;;4.32;100.00;100778.91;6081609;19;20146;-72
2024/01/06 04:04:02;;;;;;;10.50;5.32;;;;;;;4.38;100.00;100778.81;6083932;19;20006;-72
2024/01/06 04:06:07;;;;;;;10.10;4.47;;;;;;;4.39;100.00;100777.91;6084247;19;20014;-72
2024/01/06 04:08:12;;;;;;;7.40;3.55;;;;;;;4.37;100.00;100778.81;6085283;19;20018;-72
2024/01/06 04:10:18;;;;;;;14.55;4.40;;;;;;;4.31;100.00;100782.38;6082618;19;20010;-73
2024/01/06 04:12:23;;;;;;;7.60;3.97;;;;;;;4.26;100.00;100786.78;6081352;19;20542;-72
2024/01/06 04:14:28;;;;;;;13.82;4.35;;;;;;;4.26;100.00;100786.78;6083938;19;20077;-72
2024/01/06 04:16:33;;;;;;;9.90;4.22;;;;;;;4.29;100.00;100791.09;6081787;19;20536;-72
2024/01/06 04:18:38;;;;;;;8.23;4.35;;;;;;;4.28;100.00;100800.66;6082864;19;20090;-72
2024/01/06 04:20:46;;;;;;;9.60;5.35;;;;;;;4.31;100.00;100798.00;6084264;19;20078;-72
2024/01/06 04:22:51;;;;;;;9.75;4.68;;;;;;;4.32;100.00;100802.34;6082659;19;20006;-71
2024/01/06 04:24:56;;;;;;;7.10;4.10;;;;;;;4.35;100.00;100806.63;6084647;19;20015;-72
2024/01/06 04:27:01;;;;;;;10.93;4.60;;;;;;;4.35;100.00;100804.03;6083112;19;20011;-72
2024/01/06 04:29:06;;;;;;;9.65;4.13;;;;;;;4.25;100.00;100805.03;6078436;19;20006;-72
2024/01/06 04:31:11;;;;;;;11.38;4.40;;;;;;;4.24;100.00;100806.78;6084413;19;20017;-72
2024/01/06 04:33:17;;;;;;;11.30;5.00;;;;;;;4.27;100.00;100808.50;6083492;19;20021;-72
2024/01/06 04:35:23;;;;;;;10.43;4.50;;;;;;;4.27;100.00;100806.75;6086456;19;20003;-72
2024/01/06 04:37:30;;;;;;;10.38;5.45;;;;;;;4.26;100.00;100811.97;6084083;19;20463;-73
2024/01/06 04:39:32;;;;;;;10.93;5.15;;;;;;;4.26;100.00;100806.75;6085640;19;20413;-71
2024/01/06 04:41:41;;;;;;;7.47;4.13;;;;;;;4.24;100.00;100812.00;6080940;19;20451;-72
2024/01/06 04:43:47;;;;;;;9.95;5.03;;;;;;;4.20;100.00;100812.06;6084207;19;20010;-72
2024/01/06 04:45:52;;;;;;;9.68;4.63;;;;;;;4.18;100.00;100822.47;6085589;19;20035;-72
2024/01/06 04:47:54;;;;;;;9.30;4.70;;;;;;;4.22;100.00;100829.34;6085480;19;20101;-72
2024/01/06 04:50:00;;;;;;;11.80;5.53;;;;;;;4.15;100.00;100830.31;6083025;19;20448;-72
2024/01/06 04:52:05;;;;;;;10.43;5.47;;;;;;;4.18;100.00;100828.53;6081437;19;20007;-73
2024/01/06 04:54:10;;;;;;;9.95;4.50;;;;;;;4.16;100.00;100824.22;6080788;19;20010;-72
2024/01/06 04:56:15;;;;;;;13.32;5.60;;;;;;;4.15;100.00;100828.56;6080508;19;20015;-73
2024/01/06 04:58:17;;;;;;;11.93;5.22;;;;;;;4.17;100.00;100829.41;6083968;19;20010;-71
2024/01/06 05:00:25;;;;;;;9.90;3.78;;;;;;;4.19;100.00;100834.59;6081367;19;20006;-72
2024/01/06 05:02:28;;;;;;;13.10;4.57;;;;;;;4.21;100.00;100832.81;6084424;19;20011;-71
2024/01/06 05:04:33;;;;;;;7.32;4.20;;;;;;;4.21;100.00;100835.41;6082746;19;20046;-71
2024/01/06 05:06:38;;;;;;;8.30;4.50;;;;;;;4.11;100.00;100839.91;6078106;19;20017;-71
2024/01/06 05:08:44;;;;;;;7.22;4.03;;;;;;;4.04;100.00;100843.47;6083767;19;20003;-71
2024/01/06 05:10:55;;;;;;;6.65;3.70;;;;;;;4.05;100.00;100846.94;6080120;19;20010;-71
2024/01/06 05:12:59;;;;;;;11.70;4.40;;;;;;;4.06;100.00;100856.47;6087650;19;20011;-71
2024/01/06 05:15:05;;;;;;;8.07;3.80;;;;;;;4.11;100.00;100859.88;6088289;19;20015;-71
2024/01/06 05:17:08;;;;;;;9.73;4.20;;;;;;;4.05;100.00;100854.72;6086248;19;20471;-73
2024/01/06 05:19:20;;;;;;;8.75;3.22;;;;;;;4.02;100.00;100859.97;6087596;19;20015;-70
2024/01/06 05:21:25;;;;;;;8.30;3.60;;;;;;;4.06;100.00;100859.06;6089376;19;20010;-73
2024/01/06 05:23:30;;;;;;;6.80;3.47;;;;;;;4.02;100.00;100852.19;6089484;19;20014;-70
2024/01/06 05:25:35;;;;;;;12.05;3.88;;;;;;;4.02;100.00;100865.19;6089502;19;20017;-71
2024/01/06 05:27:43;;;;;;;9.00;4.00;;;;;;;4.04;100.00;100863.41;6087731;19;20074;-72
2024/01/06 05:29:48;;;;;;;8.77;3.83;;;;;;;3.99;100.00;100866.06;6081727;19;20344;-71
2024/01/06 05:31:54;;;;;;;10.15;4.18;;;;;;;4.03;100.00;100865.16;6086848;19;20554;-72
2024/01/06 05:33:59;;;;;;;7.50;3.92;;;;;;;4.01;100.00;100873.88;6088306;19;20353;-72
2024/01/06 05:36:05;;;;;;;9.32;4.05;;;;;;;3.99;100.00;100870.41;6084674;19;20010;-72
2024/01/06 05:38:10;;;;;;;7.18;3.85;;;;;;;4.03;100.00;100878.16;6087720;19;20393;-70
2024/01/06 05:40:14;;;;;;;11.63;4.65;;;;;;;3.99;100.00;100878.22;6085781;19;20034;-70
2024/01/06 05:42:19;;;;;;;10.10;4.70;;;;;;;4.06;100.00;100877.28;6084349;19;20034;-70
2024/01/06 05:44:26;;;;;;;7.97;3.58;;;;;;;4.04;100.00;100879.88;6088526;19;20589;-71
2024/01/06 05:46:31;;;;;;;10.73;3.88;;;;;;;3.99;100.00;100886.03;6085288;19;19995;-70
2024/01/06 05:48:36;;;;;;;8.98;3.53;;;;;;;3.98;100.00;100877.38;6085100;19;20507;-71
2024/01/06 05:50:42;;;;;;;7.95;4.13;;;;;;;3.93;100.00;100885.22;6083683;19;19998;-71
2024/01/06 05:52:47;;;;;;;8.15;3.60;;;;;;;3.96;100.00;100890.38;6081515;19;20042;-71
2024/01/06 05:54:52;;;;;;;7.78;3.10;;;;;;;3.95;100.00;100891.25;6085971;19;20360;-71
2024/01/06 05:56:59;;;;;;;7.85;4.20;;;;;;;3.92;100.00;100900.81;6082041;19;20483;-71
2024/01/06 05:59:04;;;;;;;5.45;2.45;;;;;;;3.92;100.00;100906.91;6085733;19;20070;-70
2024/01/06 06:01:12;;;;;;;4.55;2.78;;;;;;;3.97;100.00;100899.88;6087048;19;20011;-71
2024/01/06 06:03:18;;;;;;;11.20;3.30;;;;;;;4.02;100.00;100906.78;6086124;19;20007;-71
2024/01/06 06:05:21;;;;;;;7.55;2.97;;;;;;;3.95;100.00;100901.66;6087466;19;20388;-71
2024/01/06 06:07:26;;;;;;;;;;;;;;;4.00;100.00;100918.94;6086769;19;20062;-71
2024/01/06 06:09:31;;;;;;;5.97;3.20;;;;;;;3.95;100.00;100913.81;6086782;19;19921;-71
2024/01/06 06:11:36;;;;;;;5.68;2.78;;;;;;;3.93;100.00;100911.22;6086658;19;20011;-71
2024/01/06 06:13:41;;;;;;;4.47;2.42;;;;;;;3.95;100.00;100914.66;6080945;19;20395;-71
2024/01/06 06:15:44;;;;;;;3.83;2.58;;;;;;;3.88;100.00;100926.00;6087058;19;20479;-71
2024/01/06 06:17:52;;;;;;;3.80;2.45;;;;;;;3.92;100.00;100927.69;6082510;19;20013;-71
2024/01/06 06:19:57;;;;;;;5.82;2.47;;;;;;;3.94;100.00;100933.72;6088574;19;20013;-71
2024/01/06 06:22:02;;;;;;;7.60;3.85;;;;;;;3.93;100.00;100942.41;6088325;19;20112;-71
2024/01/06 06:24:08;;;;;;;3.53;2.33;;;;;;;3.96;100.00;100939.78;6088035;19;20006;-71
2024/01/06 06:26:14;;;;;;;9.32;3.17;;;;;;;3.95;100.00;100943.25;6086816;19;20007;-71
2024/01/06 06:28:16;;;;;;;6.85;3.33;;;;;;;3.97;100.00;100949.28;6087427;19;20023;-71
2024/01/06 06:30:21;;;;;;;4.15;2.80;;;;;;;3.92;100.00;100948.50;6083053;19;20003;-70
2024/01/06 06:32:26;;;;;;;6.57;2.90;;;;;;;3.88;100.00;100962.41;6087346;19;20041;-70
2024/01/06 06:34:35;;;;;;;8.43;3.63;;;;;;;3.88;100.00;100966.75;6088693;19;20087;-70
2024/01/06 06:36:40;;;;;;;6.05;3.30;;;;;;;3.89;100.00;100969.31;6084692;19;20013;-70
2024/01/06 06:38:42;;;;;;;5.93;3.03;;;;;;;3.89;100.00;100964.09;6086354;19;20015;-71
2024/01/06 06:40:47;;;;;;;10.15;3.35;;;;;;;3.95;100.00;100960.59;6085671;19;20003;-71
2024/01/06 06:42:52;;;;;;;6.60;3.20;;;;;;;3.87;100.00;100971.09;6084726;19;20007;-71
2024/01/06 06:44:57;;;;;;;6.13;2.83;;;;;;;3.88;100.00;100962.41;6086920;19;20017;-71
2024/01/06 06:47:02;;;;;;;4.88;2.70;;;;;;;3.89;100.00;100974.50;6083531;19;20025;-71
2024/01/06 06:49:08;;;;;;;6.63;5.10;;;;;;;3.83;100.00;100971.13;6082464;19;20002;-71
2024/01/06 06:51:16;;;;;;;4.85;3.15;;;;;;;3.86;100.00;100977.16;6086271;19;20006;-71
2024/01/06 06:53:21;;;;;;;4.15;2.33;;;;;;;3.91;100.00;100982.31;6083359;19;20008;-71
2024/01/06 06:55:27;;;;;;;7.07;3.50;;;;;;;3.86;100.00;100987.53;6086970;19;20034;-72
2024/01/06 06:57:32;;;;;;;7.88;3.60;;;;;;;3.88;100.00;100990.13;6085412;19;20023;-72
2024/01/06 06:59:38;;;;;;;9.55;3.78;;;;;;;3.79;100.00;100990.22;6087100;19;20006;-72
2024/01/06 07:01:43;;;;;;;7.30;3.42;;;;;;;3.73;100.00;100998.94;6085096;19;20007;-72
2024/01/06 07:03:48;;;;;;;7.28;3.28;;;;;;;3.72;100.00;101005.88;6085056;19;20007;-73
2024/01/06 07:05:53;;;;;;;4.38;3.25;;;;;;;3.76;100.00;101005.84;6084549;19;20007;-73
2024/01/06 07:08:02;;;;;;;8.25;4.25;;;;;;;3.76;100.00;101017.09;6084768;19;20324;-71
2024/01/06 07:10:10;;;;;;;7.20;3.45;;;;;;;3.71;100.00;101013.69;6086894;19;20077;-71
2024/01/06 07:12:15;;;;;;;8.02;3.63;;;;;;;3.70;100.00;101014.56;6081989;19;20499;-72
2024/01/06 07:14:20;;;;;;;6.45;3.13;;;;;;;3.65;100.00;101018.94;6085550;19;20009;-71
2024/01/06 07:16:25;;;;;;;9.85;4.60;;;;;;;3.80;100.00;101034.41;6086183;19;20021;-72
2024/01/06 07:18:30;;;;;;;8.02;4.20;;;;;;;3.80;100.00;101024.00;6085916;19;20031;-72
2024/01/06 07:20:40;;;;;;;8.95;4.53;;;;;;;3.84;100.00;101041.28;6086164;19;20488;-72
2024/01/06 07:22:45;;;;;;;9.55;4.47;;;;;;;3.83;100.00;101043.91;6085843;19;20034;-73
2024/01/06 07:24:50;;;;;;;6.95;3.53;;;;;;;3.70;100.00;101043.16;6084293;19;20375;-72
2024/01/06 07:26:55;;;;;;;9.63;3.65;;;;;;;3.78;100.00;101046.56;6086463;19;20718;-72
2024/01/06 07:29:02;;;;;;;12.52;4.32;;;;;;;3.81;100.00;101051.72;6084437;19;20074;-72
2024/01/06 07:31:08;;;;;;;8.23;3.95;;;;;;;3.76;100.00;101043.09;6086411;19;19999;-72
2024/01/06 07:33:13;;;;;;;8.25;4.85;;;;;;;3.81;100.00;101050.84;6085011;19;20475;-72
2024/01/06 07:35:18;;;;;;;8.30;4.32;;;;;;;3.76;100.00;101050.03;6084501;19;20373;-72
2024/01/06 07:37:21;;;;;;;8.43;4.43;;;;;;;3.73;100.00;101056.13;6085062;19;20102;-72
2024/01/06 07:39:26;;;;;;;7.55;4.57;;;;;;;3.82;100.00;101061.25;6079560;19;20031;-73
2024/01/06 07:41:34;;;;;;;7.60;3.75;;;;;;;3.83;100.00;101056.91;6086151;19;20015;-72
2024/01/06 07:43:39;;;;;;;7.75;4.07;;;;;;;3.80;100.00;101068.19;6082665;19;20017;-72
2024/01/06 07:45:42;;;;;;;8.23;3.60;;;;;;;3.83;100.00;101072.50;6083966;19;20024;-73
2024/01/06 07:47:47;;;;;;;8.55;4.93;;;;;;;3.73;100.00;101071.72;6085659;19;20006;-72
2024/01/06 07:49:52;;;;;;;7.38;3.58;;;;;;;3.70;100.00;101079.53;6083522;19;20018;-71
2024/01/06 07:51:58;;;;;;;6.57;4.05;;;;;;;3.66;100.00;101085.63;6084160;19;20020;-71
2024/01/06 07:54:05;;;;;;;6.50;3.30;;;;;;;3.67;100.00;101087.38;6083229;19;20006;-72
2024/01/06 07:56:10;;;;;;;6.47;3.30;;;;;;;3.63;100.00;101090.84;6081801;19;20482;-71
2024/01/06 07:58:18;;;;;;;7.05;3.88;;;;;;;3.65;100.00;101099.50;6085837;19;20011;-71
2024/01/06 08:00:24;;;;;;;7.00;3.13;;;;;;;3.69;100.00;101096.88;6085138;19;20007;-72
2024/01/06 08:02:29;;;;;;;8.18;3.33;;;;;;;3.66;100.00;101104.72;6079877;19;20022;-73
2024/01/06 08:04:34;;;;;;;7.53;3.33;;;;;;;3.67;100.00;101096.03;6084518;19;20006;-73
2024/01/06 08:06:39;;;;;;;5.97;3.28;;;;;;;3.62;100.00;101103.00;6085330;19;20034;-72
2024/01/06 08:08:45;;;;;;;4.78;2.58;;;;;;;3.69;100.00;101111.63;6085967;19;20358;-73
2024/01/06 08:10:50;;;;;;;6.68;3.03;;;;;;;3.65;100.00;101108.16;6084229;19;20003;-71
2024/01/06 08:12:55;;;;;;;5.38;2.63;;;;;;;3.69;100.00;101127.22;6085081;19;20031;-71
2024/01/06 08:15:04;;;;;;;6.93;3.53;;;;;;;3.67;100.00;101131.56;6081493;19;20089;-73
2024/01/06 08:17:10;;;;;;;5.75;3.35;;;;;;;3.73;100.00;101132.34;6084756;19;20006;-71
2024/01/06 08:19:15;;;;;;;5.90;3.10;;;;;;;3.79;100.00;101126.28;6084148;19;20456;-72
2024/01/06 08:21:23;;;;;;;6.05;3.40;;;;;;;3.77;100.00;101133.22;6082358;19;20011;-70
2024/01/06 08:23:26;;;;;;;6.28;3.53;;;;;;;3.76;100.00;101131.47;6083029;19;20664;-72
2024/01/06 08:25:31;;;;;;;9.52;4.15;;;;;;;3.71;100.00;101131.53;6082646;19;20023;-72
2024/01/06 08:27:36;;;;;;;6.90;3.15;;;;;;;3.72;100.00;101134.97;6084662;19;20226;-72
2024/01/06 08:29:41;;;;;;;9.55;3.42;;;;;;;3.67;100.00;101141.94;6083106;19;20023;-72
2024/01/06 08:31:47;;;;;;;6.55;3.67;;;;;;;3.76;100.00;101141.88;6079430;19;20002;-70
2024/01/06 08:33:53;;;;;;;5.75;3.28;;;;;;;3.73;100.00;101154.88;6082770;19;20066;-71
2024/01/06 08:35:58;;;;;;;7.97;2.88;;;;;;;3.82;100.00;101151.34;6079762;19;20089;-71
2024/01/06 08:38:00;;;;;;;6.38;3.30;;;;;;;3.87;100.00;101162.56;6081168;19;20052;-71
2024/01/06 08:40:07;;;;;;;9.80;3.63;;;;;;;3.78;100.00;101158.31;6082101;19;20006;-70
2024/01/06 08:42:13;;;;;;;7.15;4.05;;;;;;;3.74;100.00;101164.44;6081426;19;20010;-71
2024/01/06 08:44:18;;;;;;;7.60;3.25;;;;;;;3.77;100.00;101153.16;6084590;19;20007;-71
2024/01/06 08:46:26;;;;;;;8.27;3.40;;;;;;;3.72;100.00;101160.97;6082954;19;20035;-72
2024/01/06 08:48:34;;;;;;;7.90;3.60;;;;;;;3.71;100.00;101164.44;6085589;19;20464;-72
2024/01/06 08:50:37;;;;;;;7.20;3.60;;;;;;;3.79;100.00;101170.47;6085403;19;20014;-70
2024/01/06 08:52:42;;;;;;;7.32;4.40;;;;;;;3.80;100.00;101169.56;6083565;19;20091;-71
2024/01/06 08:54:47;;;;;;;6.65;3.38;;;;;;;3.71;100.00;101175.72;6088397;19;20452;-71
2024/01/06 08:56:53;;;;;;;8.20;3.78;;;;;;;3.70;100.00;101179.16;6086755;19;20384;-71
2024/01/06 08:58:58;;;;;;;7.18;3.70;;;;;;;3.67;100.00;101178.34;6087277;19;20366;-71
2024/01/06 09:01:03;;;;;;;5.35;2.95;;;;;;;3.74;100.00;101182.63;6086253;19;20015;-71
2024/01/06 09:03:06;;;;;;;7.07;3.40;;;;;;;3.79;100.00;101192.97;6086960;19;20007;-70
2024/01/06 09:05:14;;;;;;;10.55;3.70;;;;;;;3.78;100.00;101199.91;6089920;19;20013;-71
2024/01/06 09:07:20;;;;;;;8.93;3.50;;;;;;;3.88;100.00;101198.13;6083077;19;20149;-73
2024/01/06 09:09:23;;;;;;;3.85;2.72;;;;;;;3.71;100.00;101199.09;6086245;19;20010;-71
2024/01/06 09:11:28;;;;;;;4.72;3.10;;;;;;;3.79;100.00;101198.16;6089640;19;20010;-73
2024/01/06 09:13:32;;;;;;;5.60;3.00;;;;;;;3.73;100.00;101206.88;6089475;19;20017;-73
2024/01/06 09:15:39;;;;;;;4.13;2.88;;;;;;;3.69;100.00;101207.78;6084787;19;20007;-71
2024/01/06 09:17:44;;;;;;;5.65;2.78;;;;;;;3.73;100.00;101206.88;6086595;19;20020;-70
2024/01/06 09:19:49;;;;;;;6.35;3.05;;;;;;;3.65;100.00;101208.66;6090725;19;20011;-71
2024/01/06 09:21:57;;;;;;;6.55;3.35;;;;;;;3.74;100.00;101203.41;6088534;19;20083;-72
2024/01/06 09:24:06;;;;;;;6.55;2.97;;;;;;;3.77;100.00;101216.38;6089406;19;20011;-72
2024/01/06 09:26:12;;;;;;;6.45;3.42;;;;;;;3.82;100.00;101218.94;6088827;19;20017;-72
2024/01/06 09:28:17;;;;;;;5.63;2.53;;;;;;;3.81;100.00;101225.88;6088423;19;20006;-71
2024/01/06 09:30:20;;;;;;;3.75;2.38;;;;;;;3.73;100.00;101225.06;6087248;19;20007;-71
2024/01/06 09:32:25;;;;;;;6.85;2.88;;;;;;;3.83;100.00;101228.47;6089991;19;20010;-71
2024/01/06 09:34:30;;;;;;;3.85;2.45;;;;;;;3.87;100.00;101236.25;6089007;19;20014;-71
2024/01/06 09:36:37;;;;;;;6.80;2.47;;;;;;;3.80;100.00;101231.09;6086317;19;20014;-71
2024/01/06 09:38:44;;;;;;;6.90;3.00;;;;;;;3.78;100.00;101236.31;6083319;19;20133;-71
2024/01/06 09:40:49;;;;;;;8.57;3.08;;;;;;;3.83;100.00;101237.13;6079471;19;20369;-72